Time;durP1;ratioP1;P1;durP2;ratioP2;P2;SDS_P1;SDS_P2;PMS_P1;PMS_P2;Temp;Humidity;BMP_temperature;BMP_pressure;BME280_temperature;BME280_humidity;BME280_pressure;Samples;Min_cycle;Max_cycle;Signal;HPM_P1;HPM_P2
2022/11/22 00:00:24;;;;;;;13.55;3.13;;;7.60;99.90;;;;;;5134655;27;20173;-52
2022/11/22 00:02:50;;;;;;;17.15;4.25;;;7.60;99.90;;;;;;5134474;27;20537;-51
2022/11/22 00:05:15;;;;;;;12.43;3.60;;;7.60;99.90;;;;;;5134400;27;20196;-53
2022/11/22 00:07:41;;;;;;;14.55;3.55;;;7.60;99.90;;;;;;5134629;27;20680;-54
2022/11/22 00:10:09;;;;;;;16.23;4.57;;;7.70;99.90;;;;;;5134447;27;20181;-52
2022/11/22 00:12:35;;;;;;;15.15;4.18;;;7.60;99.90;;;;;;5116125;27;20173;-51
2022/11/22 00:15:01;;;;;;;17.67;4.20;;;7.60;99.90;;;;;;5134282;27;20686;-54
2022/11/22 00:17:26;;;;;;;19.63;4.00;;;7.60;99.90;;;;;;5099122;28;20185;-52
2022/11/22 00:19:52;;;;;;;16.85;3.75;;;7.60;99.90;;;;;;5099174;27;20229;-54
2022/11/22 00:22:18;;;;;;;14.77;3.60;;;7.70;99.90;;;;;;5134215;27;20251;-54
2022/11/22 00:24:45;;;;;;;17.92;3.83;;;7.60;99.90;;;;;;5134281;27;20171;-54
2022/11/22 00:27:11;;;;;;;14.90;3.50;;;7.50;99.90;;;;;;5134328;27;20246;-54
2022/11/22 00:29:36;;;;;;;21.60;4.05;;;7.40;99.90;;;;;;5134225;27;20179;-53
2022/11/22 00:32:02;;;;;;;16.30;3.22;;;7.40;99.90;;;;;;5134157;27;20240;-53
2022/11/22 00:34:27;;;;;;;20.45;3.90;;;7.40;99.90;;;;;;5134560;27;20168;-52
2022/11/22 00:36:53;;;;;;;18.63;3.60;;;7.40;99.90;;;;;;5134196;28;20183;-53
2022/11/22 00:39:19;;;;;;;15.10;3.92;;;7.40;99.90;;;;;;5134134;28;20770;-54
2022/11/22 00:41:44;;;;;;;13.45;3.20;;;7.30;99.90;;;;;;5115716;28;20199;-55
2022/11/22 00:44:10;;;;;;;16.95;3.97;;;7.30;99.90;;;;;;5134020;28;20229;-55
2022/11/22 00:46:36;;;;;;;15.80;3.20;;;7.30;99.90;;;;;;5133910;28;20204;-52
2022/11/22 00:49:01;;;;;;;13.38;2.92;;;7.30;99.90;;;;;;5134158;28;20176;-51
2022/11/22 00:51:27;;;;;;;15.93;3.22;;;7.20;99.90;;;;;;5115691;28;20176;-51
2022/11/22 00:53:52;;;;;;;14.95;3.72;;;7.20;99.90;;;;;;5115655;28;20178;-52
2022/11/22 00:56:18;;;;;;;22.65;3.60;;;7.10;99.90;;;;;;5098716;28;20176;-54
2022/11/22 00:58:44;;;;;;;18.13;3.08;;;7.20;99.90;;;;;;5119316;27;20640;-51
2022/11/22 01:01:09;;;;;;;18.50;4.05;;;7.10;99.90;;;;;;5138009;27;20189;-54
2022/11/22 01:03:35;;;;;;;15.75;3.47;;;7.20;99.90;;;;;;5138184;27;20173;-51
2022/11/22 01:06:00;;;;;;;14.52;3.00;;;7.10;99.90;;;;;;5137993;27;20215;-53
2022/11/22 01:08:26;;;;;;;15.63;3.58;;;7.10;99.90;;;;;;5138091;27;20359;-52
2022/11/22 01:11:00;;;;;;;16.42;3.22;;;7.10;99.90;;;;;;5137737;27;20180;-52
2022/11/22 01:13:27;;;;;;;18.52;3.30;;;7.10;99.90;;;;;;5137778;27;20259;-54
2022/11/22 01:15:57;;;;;;;17.55;3.20;;;7.10;99.90;;;;;;5138033;27;20180;-51
2022/11/22 01:18:22;;;;;;;15.85;4.32;;;7.10;99.90;;;;;;5137631;27;20537;-53
2022/11/22 01:20:48;;;;;;;21.15;3.80;;;7.10;99.90;;;;;;5137753;27;20176;-52
2022/11/22 01:23:14;;;;;;;14.68;3.47;;;7.00;99.90;;;;;;5119234;27;20255;-52
2022/11/22 01:25:42;;;;;;;17.73;3.22;;;7.00;99.90;;;;;;5137507;27;20207;-52
2022/11/22 01:28:08;;;;;;;16.15;2.90;;;6.90;99.90;;;;;;5137482;27;20179;-51
2022/11/22 01:30:34;;;;;;;10.50;2.67;;;6.80;99.90;;;;;;5137659;27;20177;-51
2022/11/22 01:33:00;;;;;;;12.25;2.55;;;6.90;99.90;;;;;;5119389;27;20168;-53
2022/11/22 01:35:25;;;;;;;16.15;3.17;;;6.80;99.90;;;;;;5137815;27;20532;-54
2022/11/22 01:37:51;;;;;;;18.88;3.78;;;6.80;99.90;;;;;;5137442;27;20600;-52
2022/11/22 01:40:17;;;;;;;17.38;2.70;;;6.90;99.90;;;;;;5118789;27;20191;-53
2022/11/22 01:42:47;;;;;;;12.98;3.40;;;6.80;99.90;;;;;;5137182;27;20548;-53
2022/11/22 01:45:44;;;;;;;14.57;3.33;;;6.70;99.90;;;;;;5137257;27;20553;-52
2022/11/22 01:48:18;;;;;;;16.63;3.00;;;6.80;99.90;;;;;;5047239;27;20191;-54
2022/11/22 01:50:48;;;;;;;12.20;2.80;;;6.80;99.90;;;;;;5118718;27;20580;-53
2022/11/22 01:53:19;;;;;;;17.63;2.95;;;6.80;99.90;;;;;;5136886;27;20736;-54
2022/11/22 01:55:46;;;;;;;15.55;3.40;;;6.70;99.90;;;;;;5137213;27;20260;-53
2022/11/22 01:58:14;;;;;;;19.33;3.15;;;6.80;99.90;;;;;;5137078;27;20179;-51
2022/11/22 02:00:40;;;;;;;16.50;2.97;;;6.80;99.90;;;;;;5137019;27;20198;-54
2022/11/22 02:03:09;;;;;;;16.80;3.25;;;6.80;99.90;;;;;;5136891;27;20173;-53
2022/11/22 02:05:35;;;;;;;16.90;2.85;;;6.80;99.90;;;;;;5136574;27;20278;-52
2022/11/22 02:08:24;;;;;;;9.45;2.67;;;6.80;99.90;;;;;;5136672;27;20210;-51
2022/11/22 02:10:54;;;;;;;15.15;3.03;;;6.80;99.90;;;;;;5136881;27;20179;-53
2022/11/22 02:13:21;;;;;;;19.02;3.63;;;6.80;99.90;;;;;;5136602;27;20217;-52
2022/11/22 02:15:47;;;;;;;11.73;3.33;;;6.70;99.90;;;;;;5136883;27;20240;-54
2022/11/22 02:18:13;;;;;;;14.90;2.60;;;6.70;99.90;;;;;;5136433;27;20656;-52
2022/11/22 02:20:39;;;;;;;13.15;2.75;;;6.70;99.90;;;;;;5118465;27;20176;-54
2022/11/22 02:23:33;;;;;;;16.70;2.97;;;6.70;99.90;;;;;;5136891;27;20292;-51
2022/11/22 02:26:00;;;;;;;11.55;3.17;;;6.60;99.90;;;;;;5118921;27;20252;-51
2022/11/22 02:28:29;;;;;;;13.10;2.50;;;6.50;99.90;;;;;;5136230;27;20172;-52
2022/11/22 02:30:55;;;;;;;14.82;2.90;;;6.60;99.90;;;;;;5136516;27;20196;-51
2022/11/22 02:33:20;;;;;;;8.13;2.20;;;6.70;99.90;;;;;;5101014;27;20278;-52
2022/11/22 02:35:46;;;;;;;12.40;2.47;;;6.70;99.90;;;;;;5101089;27;20187;-51
2022/11/22 02:38:21;;;;;;;14.00;2.75;;;6.70;99.90;;;;;;5136260;27;20256;-51
2022/11/22 02:41:03;;;;;;;9.65;2.83;;;6.60;99.90;;;;;;5136027;27;20388;-51
2022/11/22 02:43:37;;;;;;;15.27;2.65;;;6.60;99.90;;;;;;5136330;27;20175;-51
2022/11/22 02:46:08;;;;;;;9.75;2.53;;;6.60;99.90;;;;;;5136073;27;20192;-52
2022/11/22 02:48:39;;;;;;;9.30;2.30;;;6.50;99.90;;;;;;5136005;27;20169;-52
2022/11/22 02:51:05;;;;;;;10.52;2.80;;;6.60;99.90;;;;;;5136060;27;20803;-53
2022/11/22 02:53:31;;;;;;;13.52;2.50;;;6.50;99.90;;;;;;5135803;27;20255;-51
2022/11/22 02:55:57;;;;;;;9.60;2.15;;;6.50;99.90;;;;;;5135801;27;20180;-51
2022/11/22 02:58:22;;;;;;;11.55;2.20;;;6.50;99.90;;;;;;5135891;27;20176;-53
2022/11/22 03:00:48;;;;;;;9.50;2.42;;;6.50;99.90;;;;;;5135892;27;20176;-51
2022/11/22 03:03:14;;;;;;;13.07;3.03;;;6.40;99.90;;;;;;5135676;27;20177;-51
2022/11/22 03:05:40;;;;;;;14.48;2.45;;;6.40;99.90;;;;;;5135588;27;20239;-51
2022/11/22 03:08:05;;;;;;;8.32;2.33;;;6.40;99.90;;;;;;5117153;27;20181;-52
2022/11/22 03:10:31;;;;;;;11.73;2.60;;;6.40;99.90;;;;;;5117241;27;20181;-52
2022/11/22 03:12:57;;;;;;;10.23;2.30;;;6.30;99.90;;;;;;5135619;27;20184;-51
2022/11/22 03:15:23;;;;;;;10.35;2.47;;;6.20;99.90;;;;;;5135560;27;20169;-51
2022/11/22 03:17:48;;;;;;;8.13;2.70;;;6.20;99.90;;;;;;5135473;27;20176;-53
2022/11/22 03:20:14;;;;;;;12.73;2.30;;;6.20;99.90;;;;;;5134628;27;20567;-51
2022/11/22 03:22:40;;;;;;;7.88;2.03;;;6.10;99.90;;;;;;5099825;27;20176;-51
2022/11/22 03:25:06;;;;;;;9.45;2.58;;;6.10;99.90;;;;;;5135118;27;20211;-53
2022/11/22 03:27:32;;;;;;;6.28;2.08;;;6.10;99.90;;;;;;5117006;27;20225;-52
2022/11/22 03:29:57;;;;;;;7.38;1.67;;;6.20;99.90;;;;;;5135235;27;20571;-54
2022/11/22 03:32:23;;;;;;;6.40;1.73;;;6.20;99.90;;;;;;5135139;27;20186;-53
2022/11/22 03:34:49;;;;;;;9.90;2.55;;;6.20;99.90;;;;;;5135046;27;20528;-53
2022/11/22 03:37:14;;;;;;;10.60;1.95;;;6.10;99.90;;;;;;5135023;27;20179;-53
2022/11/22 03:39:40;;;;;;;7.72;2.42;;;6.00;99.90;;;;;;5135063;27;20217;-52
2022/11/22 03:42:05;;;;;;;5.82;1.77;;;6.10;99.90;;;;;;5134930;27;20188;-51
2022/11/22 03:44:31;;;;;;;9.60;2.15;;;6.20;99.90;;;;;;5116715;27;20236;-52
2022/11/22 03:46:56;;;;;;;9.57;2.22;;;6.20;99.90;;;;;;5134804;27;20226;-52
2022/11/22 03:49:22;;;;;;;7.10;1.80;;;6.20;99.90;;;;;;5135151;27;20295;-53
2022/11/22 03:51:48;;;;;;;10.18;2.13;;;6.20;99.90;;;;;;5134654;27;20176;-52
2022/11/22 03:54:13;;;;;;;5.82;1.77;;;6.20;99.90;;;;;;5134708;27;20608;-51
2022/11/22 03:56:39;;;;;;;7.25;1.60;;;6.10;99.90;;;;;;5116327;27;20668;-53
2022/11/22 03:59:05;;;;;;;8.25;2.63;;;6.00;99.90;;;;;;5134689;27;20172;-52
2022/11/22 04:01:30;;;;;;;7.72;2.05;;;6.10;99.90;;;;;;5134509;27;20266;-53
2022/11/22 04:03:56;;;;;;;9.10;2.00;;;6.10;99.90;;;;;;5134508;27;20176;-52
2022/11/22 04:06:22;;;;;;;13.13;2.35;;;6.10;99.90;;;;;;5134327;27;20199;-52
2022/11/22 04:08:47;;;;;;;9.18;2.20;;;6.10;99.90;;;;;;5134470;27;20184;-54
2022/11/22 04:11:13;;;;;;;6.13;1.48;;;6.20;99.90;;;;;;5134646;27;20212;-51
2022/11/22 04:16:23;;;;;;;12.25;2.42;;;6.20;99.90;;;;;;5134681;27;20231;-53
2022/11/22 04:18:49;;;;;;;6.78;2.10;;;6.20;99.90;;;;;;5115908;27;20180;-54
2022/11/22 04:21:32;;;;;;;9.07;1.83;;;6.30;99.90;;;;;;5116165;27;20283;-54
2022/11/22 04:26:42;;;;;;;7.18;2.25;;;6.50;99.90;;;;;;5134310;27;20343;-55
2022/11/22 04:29:08;;;;;;;9.73;2.15;;;6.50;99.90;;;;;;5134140;27;20481;-51
2022/11/22 04:34:18;;;;;;;5.55;2.00;;;6.50;99.90;;;;;;5134209;27;20175;-52
2022/11/22 04:36:43;;;;;;;7.50;2.15;;;6.50;99.90;;;;;;5134229;27;20180;-51
2022/11/22 04:39:09;;;;;;;7.90;2.03;;;6.60;99.90;;;;;;5115771;28;20184;-51
2022/11/22 04:41:35;;;;;;;8.13;2.70;;;6.60;99.90;;;;;;5116112;28;20241;-50
2022/11/22 04:46:44;;;;;;;9.25;2.30;;;6.70;99.90;;;;;;5118567;28;20215;-51
2022/11/22 04:49:10;;;;;;;7.97;2.10;;;6.60;99.90;;;;;;5134072;28;20183;-51
2022/11/22 04:54:20;;;;;;;7.30;2.20;;;6.70;99.90;;;;;;5118703;28;20574;-51
2022/11/22 04:56:45;;;;;;;9.23;2.40;;;6.60;99.90;;;;;;5134104;28;20180;-52
2022/11/22 04:59:11;;;;;;;8.00;2.33;;;6.60;99.90;;;;;;5133922;28;20177;-51
2022/11/22 05:01:36;;;;;;;11.93;2.25;;;6.60;99.90;;;;;;5134025;28;20176;-52
2022/11/22 05:04:02;;;;;;;5.15;1.73;;;6.40;99.90;;;;;;5115629;28;20177;-51
2022/11/22 05:06:28;;;;;;;8.73;2.28;;;6.40;99.90;;;;;;5133904;28;20200;-53
2022/11/22 05:08:53;;;;;;;7.47;1.88;;;6.30;99.90;;;;;;5115447;28;20614;-52
2022/11/22 05:11:19;;;;;;;10.15;2.05;;;6.40;99.90;;;;;;5115660;28;20202;-52
2022/11/22 05:13:44;;;;;;;12.40;2.40;;;6.50;99.90;;;;;;5133761;28;20173;-51
2022/11/22 05:16:13;;;;;;;8.57;2.33;;;6.50;99.90;;;;;;5115493;28;20208;-52
2022/11/22 05:18:38;;;;;;;6.10;2.17;;;6.60;99.90;;;;;;5133848;28;20189;-51
2022/11/22 05:21:11;;;;;;;4.97;2.08;;;6.60;99.90;;;;;;5115701;28;20186;-52
2022/11/22 05:23:54;;;;;;;9.52;2.35;;;6.50;99.90;;;;;;5133716;28;20225;-53
2022/11/22 05:26:25;;;;;;;9.60;2.55;;;6.50;99.90;;;;;;5133973;28;20218;-54
2022/11/22 05:28:51;;;;;;;6.20;2.00;;;6.60;99.90;;;;;;5133835;28;20179;-53
2022/11/22 05:31:22;;;;;;;6.30;2.00;;;6.80;99.90;;;;;;5133678;28;20173;-51
2022/11/22 05:33:50;;;;;;;8.90;2.10;;;6.70;99.90;;;;;;5133614;28;20172;-53
2022/11/22 05:36:16;;;;;;;8.18;2.53;;;6.70;99.90;;;;;;5133360;28;20206;-51
2022/11/22 05:38:42;;;;;;;7.50;1.95;;;6.80;99.90;;;;;;5133589;28;20176;-51
2022/11/22 05:41:09;;;;;;;8.85;2.10;;;6.70;99.90;;;;;;5133806;28;20699;-52
2022/11/22 05:43:36;;;;;;;7.85;2.38;;;6.70;99.90;;;;;;5135337;27;20183;-51
2022/11/22 05:46:13;;;;;;;7.53;1.80;;;6.80;99.90;;;;;;5137304;27;20211;-54
2022/11/22 05:48:42;;;;;;;6.85;2.42;;;6.80;99.90;;;;;;5137192;27;20179;-52
2022/11/22 05:51:11;;;;;;;7.53;1.95;;;6.80;99.90;;;;;;5137233;27;20183;-53
2022/11/22 05:53:38;;;;;;;4.45;1.67;;;6.80;99.90;;;;;;5137153;27;20176;-51
2022/11/22 05:56:05;;;;;;;8.13;2.25;;;6.80;99.90;;;;;;5137021;27;20169;-52
2022/11/22 05:58:31;;;;;;;9.40;1.95;;;6.90;99.90;;;;;;5137152;27;20263;-53
2022/11/22 06:01:12;;;;;;;7.95;2.30;;;6.90;99.90;;;;;;5136900;27;20171;-54
2022/11/22 06:03:38;;;;;;;6.82;2.33;;;6.80;99.90;;;;;;5137127;27;20562;-51
2022/11/22 06:06:05;;;;;;;7.80;1.80;;;6.80;99.90;;;;;;5135947;27;20204;-52
2022/11/22 06:08:33;;;;;;;8.35;2.08;;;6.80;99.90;;;;;;5136683;27;20577;-52
2022/11/22 06:11:07;;;;;;;6.57;1.95;;;6.80;99.90;;;;;;5137024;27;20643;-51
2022/11/22 06:13:37;;;;;;;7.50;2.00;;;6.70;99.90;;;;;;5136684;27;20212;-53
2022/11/22 06:16:04;;;;;;;7.10;1.92;;;6.70;99.90;;;;;;5136819;27;20184;-51
2022/11/22 06:18:30;;;;;;;6.15;2.22;;;6.80;99.90;;;;;;5136648;27;20632;-54
2022/11/22 06:21:04;;;;;;;8.20;1.90;;;6.80;99.90;;;;;;5118202;27;20233;-52
2022/11/22 06:23:30;;;;;;;8.25;3.05;;;6.80;99.90;;;;;;5136518;27;20168;-54
2022/11/22 06:26:08;;;;;;;6.10;2.35;;;6.80;99.90;;;;;;5136256;27;20229;-53
2022/11/22 06:28:35;;;;;;;5.25;2.25;;;6.80;99.90;;;;;;5136638;27;20173;-54
2022/11/22 06:31:10;;;;;;;6.07;2.15;;;6.90;99.90;;;;;;5136491;27;20167;-52
2022/11/22 06:33:36;;;;;;;5.93;2.22;;;6.90;99.90;;;;;;5136499;27;20171;-54
2022/11/22 06:36:07;;;;;;;6.22;2.33;;;6.80;99.90;;;;;;5136313;27;20213;-53
2022/11/22 06:38:32;;;;;;;5.25;2.28;;;6.80;99.90;;;;;;5136225;27;20173;-50
2022/11/22 06:41:19;;;;;;;8.55;2.13;;;6.80;99.90;;;;;;5136311;27;20644;-51
2022/11/22 06:43:46;;;;;;;5.82;2.40;;;6.80;99.90;;;;;;5117711;27;20164;-52
2022/11/22 06:46:12;;;;;;;7.82;2.30;;;6.80;99.90;;;;;;5135989;27;20199;-51
2022/11/22 06:48:40;;;;;;;9.40;2.45;;;6.90;99.90;;;;;;5117753;27;20200;-55
2022/11/22 06:51:09;;;;;;;10.88;2.20;;;6.80;99.90;;;;;;5135879;27;20159;-51
2022/11/22 06:53:36;;;;;;;7.28;2.33;;;7.00;99.90;;;;;;5136057;27;20172;-51
2022/11/22 06:56:17;;;;;;;9.35;3.25;;;7.00;99.90;;;;;;5134859;27;20545;-52
2022/11/22 06:58:44;;;;;;;8.43;2.95;;;7.00;99.90;;;;;;5135986;27;20171;-51
2022/11/22 07:01:12;;;;;;;8.15;1.90;;;7.20;99.90;;;;;;5117482;27;20651;-51
2022/11/22 07:03:39;;;;;;;6.72;2.33;;;7.10;99.90;;;;;;5135580;27;20182;-51
2022/11/22 07:06:05;;;;;;;10.73;2.75;;;7.10;99.90;;;;;;5135628;27;20239;-51
2022/11/22 07:08:31;;;;;;;9.10;2.60;;;7.10;99.90;;;;;;5117268;27;20541;-54
2022/11/22 07:11:08;;;;;;;7.63;2.55;;;7.20;99.90;;;;;;5117275;27;20233;-53
2022/11/22 07:13:34;;;;;;;5.85;2.22;;;7.10;99.90;;;;;;5135442;27;20501;-53
2022/11/22 07:16:02;;;;;;;7.13;2.50;;;7.10;99.90;;;;;;5116954;27;20171;-54
2022/11/22 07:18:28;;;;;;;7.45;2.50;;;7.20;99.90;;;;;;5135587;27;20173;-53
2022/11/22 07:21:04;;;;;;;7.55;2.55;;;7.20;99.90;;;;;;5117512;27;20180;-51
2022/11/22 07:23:30;;;;;;;6.10;2.25;;;7.20;99.90;;;;;;5135339;27;20636;-51
2022/11/22 07:25:56;;;;;;;7.00;2.80;;;7.10;99.90;;;;;;5135095;27;20219;-51
2022/11/22 07:28:22;;;;;;;7.45;2.50;;;7.00;99.90;;;;;;5135026;27;20177;-53
2022/11/22 07:30:48;;;;;;;9.63;2.38;;;7.00;99.90;;;;;;5135289;27;20593;-52
2022/11/22 07:33:14;;;;;;;8.73;2.60;;;7.20;99.90;;;;;;5135280;27;20176;-54
2022/11/22 07:35:39;;;;;;;7.78;2.35;;;7.10;99.90;;;;;;5135436;27;20531;-52
2022/11/22 07:38:05;;;;;;;5.75;2.38;;;7.10;99.90;;;;;;5099835;27;20302;-54
2022/11/22 07:40:31;;;;;;;8.57;2.75;;;7.00;99.90;;;;;;5134918;27;20191;-53
2022/11/22 07:42:57;;;;;;;5.45;2.20;;;7.10;99.90;;;;;;5134883;27;20248;-54
2022/11/22 07:45:22;;;;;;;5.45;1.85;;;7.00;99.90;;;;;;5134950;27;20203;-51
2022/11/22 07:47:48;;;;;;;5.85;2.40;;;7.10;99.90;;;;;;5134953;27;20225;-53
2022/11/22 07:50:14;;;;;;;8.18;2.47;;;7.00;99.90;;;;;;5134758;27;20187;-52
2022/11/22 07:52:40;;;;;;;10.45;3.00;;;7.20;99.90;;;;;;5134799;27;20172;-53
2022/11/22 07:55:06;;;;;;;7.70;3.70;;;7.20;99.90;;;;;;5116586;27;20180;-52
2022/11/22 07:57:32;;;;;;;7.97;2.78;;;7.30;99.90;;;;;;5116263;27;20172;-52
2022/11/22 07:59:58;;;;;;;8.48;2.83;;;7.30;99.90;;;;;;5134599;27;20342;-54
2022/11/22 08:02:24;;;;;;;6.65;2.53;;;7.30;99.90;;;;;;5134771;27;20175;-53
2022/11/22 08:04:50;;;;;;;6.38;2.33;;;7.30;99.90;;;;;;5116303;27;20173;-55
2022/11/22 08:07:15;;;;;;;6.53;2.35;;;7.20;99.90;;;;;;5134224;27;20191;-54
2022/11/22 08:09:41;;;;;;;7.63;2.30;;;7.20;99.90;;;;;;5116211;27;20206;-53
2022/11/22 08:12:07;;;;;;;7.78;2.35;;;7.20;99.90;;;;;;5134340;27;20523;-53
2022/11/22 08:14:33;;;;;;;7.53;2.20;;;7.20;99.90;;;;;;5134670;27;20179;-53
2022/11/22 08:16:59;;;;;;;5.85;2.78;;;7.20;99.90;;;;;;5134884;27;20296;-54
2022/11/22 08:19:24;;;;;;;8.35;2.13;;;7.30;99.90;;;;;;5134364;27;20262;-54
2022/11/22 08:21:50;;;;;;;4.93;2.10;;;7.20;99.90;;;;;;5134397;27;20175;-54
2022/11/22 08:24:16;;;;;;;7.78;2.58;;;7.40;99.90;;;;;;5134247;27;20182;-51
2022/11/22 08:26:42;;;;;;;6.22;2.22;;;7.30;99.90;;;;;;5134136;27;20208;-54
2022/11/22 08:29:10;;;;;;;7.13;2.15;;;7.30;99.90;;;;;;5134182;27;20187;-51
2022/11/22 08:31:36;;;;;;;6.05;1.90;;;7.40;99.90;;;;;;5134139;27;20172;-53
2022/11/22 08:34:03;;;;;;;6.63;2.08;;;7.50;99.90;;;;;;5134263;27;20226;-53
2022/11/22 08:36:29;;;;;;;6.25;2.35;;;7.50;99.90;;;;;;5134123;27;20175;-53
2022/11/22 08:38:55;;;;;;;6.10;2.42;;;7.60;99.90;;;;;;5115757;28;20281;-51
2022/11/22 08:41:21;;;;;;;4.53;2.15;;;7.70;99.90;;;;;;5134242;28;20626;-54
2022/11/22 08:43:50;;;;;;;4.28;2.17;;;7.70;99.90;;;;;;5134327;28;20575;-53
2022/11/22 08:46:16;;;;;;;5.70;2.38;;;7.70;99.90;;;;;;5134055;28;20200;-54
2022/11/22 08:48:43;;;;;;;6.05;2.00;;;7.70;99.90;;;;;;5133956;28;20177;-53
2022/11/22 08:51:11;;;;;;;4.03;1.65;;;7.70;99.90;;;;;;5133989;28;20168;-54
2022/11/22 08:53:42;;;;;;;4.25;2.00;;;7.80;99.90;;;;;;5115508;28;20271;-53
2022/11/22 08:56:10;;;;;;;6.53;2.17;;;7.80;99.90;;;;;;5133803;28;20172;-53
2022/11/22 08:58:36;;;;;;;5.20;2.20;;;7.80;99.90;;;;;;5133858;28;20173;-54
2022/11/22 09:01:04;;;;;;;7.88;2.47;;;7.90;99.90;;;;;;5134009;28;20183;-54
2022/11/22 09:03:30;;;;;;;6.30;2.13;;;7.90;99.90;;;;;;5115822;28;20194;-54
2022/11/22 09:06:03;;;;;;;5.72;2.10;;;7.90;99.90;;;;;;5133755;28;20199;-51
2022/11/22 09:08:30;;;;;;;6.90;2.35;;;7.90;99.90;;;;;;5133876;28;20196;-53
2022/11/22 09:11:02;;;;;;;9.27;2.65;;;8.10;99.90;;;;;;5115699;28;20598;-53
2022/11/22 09:13:29;;;;;;;5.45;1.95;;;8.20;99.90;;;;;;5133989;28;20165;-54
2022/11/22 09:15:54;;;;;;;6.18;2.00;;;8.00;99.90;;;;;;5133876;28;20173;-52
2022/11/22 09:18:20;;;;;;;6.07;2.40;;;7.90;99.90;;;;;;5134974;27;20287;-52
2022/11/22 09:20:46;;;;;;;8.57;2.63;;;7.80;99.90;;;;;;5137692;27;20529;-54
2022/11/22 09:23:11;;;;;;;8.20;2.30;;;8.00;99.90;;;;;;5137876;27;20179;-54
2022/11/22 09:25:37;;;;;;;6.88;2.58;;;8.00;99.90;;;;;;5137554;27;20552;-51
2022/11/22 09:28:03;;;;;;;3.90;2.17;;;8.00;99.90;;;;;;5137488;27;20176;-52
2022/11/22 09:30:29;;;;;;;4.43;2.28;;;8.20;99.90;;;;;;5137644;27;20176;-54
2022/11/22 09:32:55;;;;;;;5.40;2.30;;;8.10;99.90;;;;;;5137496;27;20268;-54
2022/11/22 09:35:21;;;;;;;5.32;2.42;;;8.10;99.90;;;;;;5137391;27;20169;-54
2022/11/22 09:37:46;;;;;;;6.82;2.20;;;8.10;99.90;;;;;;5137297;27;20176;-54
2022/11/22 09:40:14;;;;;;;4.70;2.15;;;8.20;99.90;;;;;;5119058;27;20189;-52
2022/11/22 09:43:02;;;;;;;5.40;2.20;;;8.20;99.90;;;;;;5137417;27;20176;-54
2022/11/22 09:46:00;;;;;;;5.88;2.50;;;8.30;99.90;;;;;;5137316;27;20196;-54
2022/11/22 09:48:53;;;;;;;5.35;2.35;;;8.30;99.90;;;;;;5102232;27;20638;-54
2022/11/22 09:51:27;;;;;;;5.15;2.58;;;8.20;99.90;;;;;;5137343;27;20164;-53
2022/11/22 09:54:17;;;;;;;7.38;2.28;;;8.30;99.90;;;;;;5137239;27;20165;-53
2022/11/22 09:56:43;;;;;;;3.60;2.00;;;8.40;99.90;;;;;;5118856;27;20175;-52
2022/11/22 09:59:09;;;;;;;6.20;1.80;;;8.50;99.90;;;;;;5137090;27;20517;-54
2022/11/22 10:01:46;;;;;;;9.20;2.38;;;8.50;99.90;;;;;;5118679;27;20172;-54
2022/11/22 10:04:21;;;;;;;4.65;2.00;;;8.40;99.90;;;;;;5136921;27;20168;-54
2022/11/22 10:06:58;;;;;;;5.80;2.00;;;8.40;99.90;;;;;;5136651;27;20740;-54
2022/11/22 10:09:45;;;;;;;5.38;1.80;;;8.60;99.90;;;;;;5137085;27;20192;-53
2022/11/22 10:12:32;;;;;;;8.45;2.10;;;8.60;99.90;;;;;;5136816;27;20640;-54
2022/11/22 10:15:28;;;;;;;5.65;1.90;;;8.60;99.90;;;;;;5136747;27;20211;-54
2022/11/22 10:17:58;;;;;;;4.40;1.65;;;8.70;99.90;;;;;;5136989;27;20674;-54
2022/11/22 10:20:27;;;;;;;6.60;1.80;;;8.60;99.90;;;;;;5137074;27;20193;-54
2022/11/22 10:22:55;;;;;;;2.97;1.77;;;8.60;99.90;;;;;;5136506;27;20225;-54
2022/11/22 10:25:43;;;;;;;4.03;1.92;;;8.60;99.90;;;;;;5136383;27;20250;-54
2022/11/22 10:28:24;;;;;;;5.28;1.90;;;8.50;99.90;;;;;;5136594;27;20577;-54
2022/11/22 10:31:08;;;;;;;3.72;1.45;;;8.40;99.90;;;;;;5136350;27;20164;-54
2022/11/22 10:33:40;;;;;;;3.90;2.10;;;8.40;99.90;;;;;;5136416;27;20639;-53
2022/11/22 10:36:47;;;;;;;3.42;1.90;;;8.40;99.90;;;;;;5136251;27;20237;-54
2022/11/22 10:39:36;;;;;;;3.35;1.60;;;8.40;99.90;;;;;;5136249;27;20168;-54
2022/11/22 10:42:10;;;;;;;5.20;1.88;;;8.50;99.90;;;;;;5087753;27;20242;-52
2022/11/22 10:45:11;;;;;;;4.07;1.42;;;8.60;99.90;;;;;;5136401;27;20172;-54
2022/11/22 10:48:04;;;;;;;3.03;1.50;;;8.70;99.90;;;;;;5088309;27;20644;-54
2022/11/22 10:50:42;;;;;;;2.88;1.67;;;8.60;99.90;;;;;;5136033;27;20538;-54
2022/11/22 10:53:50;;;;;;;3.30;1.65;;;8.60;99.90;;;;;;5136178;27;20165;-54
2022/11/22 10:56:28;;;;;;;4.53;2.08;;;8.50;99.90;;;;;;5135979;27;20630;-54
2022/11/22 10:59:25;;;;;;;2.55;1.60;;;8.50;99.90;;;;;;5135856;27;20164;-54
2022/11/22 11:02:08;;;;;;;2.80;1.63;;;8.50;99.90;;;;;;5094132;27;20180;-54
2022/11/22 11:04:38;;;;;;;3.70;1.50;;;8.50;99.90;;;;;;5135774;27;20174;-53
2022/11/22 11:07:05;;;;;;;5.25;1.70;;;8.60;99.90;;;;;;5135645;27;20204;-54
2022/11/22 11:09:41;;;;;;;2.00;1.45;;;8.50;99.90;;;;;;5135879;27;20184;-54
2022/11/22 11:12:14;;;;;;;3.33;1.40;;;8.60;99.90;;;;;;5118023;27;20529;-54
2022/11/22 11:14:44;;;;;;;1.88;1.40;;;8.70;99.90;;;;;;5135574;27;20172;-55
2022/11/22 11:17:21;;;;;;;3.45;1.45;;;8.80;99.90;;;;;;5135770;27;20529;-54
2022/11/22 11:19:49;;;;;;;4.43;1.73;;;8.90;99.90;;;;;;5135392;27;20175;-54
2022/11/22 11:22:18;;;;;;;2.10;1.10;;;8.80;99.90;;;;;;5135511;27;20168;-54
2022/11/22 11:24:43;;;;;;;3.70;1.33;;;8.90;99.90;;;;;;5135417;27;20598;-53
2022/11/22 11:27:10;;;;;;;3.75;1.50;;;8.80;99.90;;;;;;5135063;27;20305;-54
2022/11/22 11:29:41;;;;;;;1.98;1.30;;;9.00;99.90;;;;;;5116849;27;20232;-54
2022/11/22 11:32:10;;;;;;;3.78;1.60;;;8.90;99.90;;;;;;5135240;27;20169;-54
2022/11/22 11:34:38;;;;;;;5.10;1.58;;;9.00;99.90;;;;;;5135414;27;20222;-55
2022/11/22 11:37:04;;;;;;;1.58;1.20;;;8.90;99.90;;;;;;5135457;27;20212;-53
2022/11/22 11:39:32;;;;;;;3.33;1.20;;;9.00;99.90;;;;;;5135197;27;20172;-52
2022/11/22 11:41:59;;;;;;;4.00;1.10;;;8.90;99.90;;;;;;5134385;27;20196;-53
2022/11/22 11:44:34;;;;;;;4.22;1.52;;;8.90;99.90;;;;;;5099719;27;20181;-54
2022/11/22 11:47:01;;;;;;;2.58;1.70;;;9.00;99.90;;;;;;5134766;27;20255;-55
2022/11/22 11:49:30;;;;;;;3.83;2.17;;;8.90;99.90;;;;;;5099933;27;20233;-54
2022/11/22 11:51:57;;;;;;;3.05;1.52;;;9.00;99.90;;;;;;5134772;27;20183;-55
2022/11/22 11:54:41;;;;;;;2.75;1.40;;;8.90;99.90;;;;;;5135074;27;20234;-54
2022/11/22 11:57:12;;;;;;;4.20;2.15;;;9.00;99.90;;;;;;5134730;27;20640;-52
2022/11/22 11:59:38;;;;;;;3.33;1.77;;;8.90;99.90;;;;;;5134621;27;20176;-54
2022/11/22 12:02:04;;;;;;;2.95;1.80;;;9.00;99.90;;;;;;5135088;27;20176;-53
2022/11/22 12:04:47;;;;;;;2.63;1.70;;;9.00;99.90;;;;;;5134621;27;20624;-55
2022/11/22 12:07:23;;;;;;;3.60;2.10;;;9.00;99.90;;;;;;5134546;27;20196;-54
2022/11/22 12:09:50;;;;;;;3.25;2.15;;;9.10;99.90;;;;;;5134333;27;20172;-52
2022/11/22 12:12:42;;;;;;;3.00;1.77;;;9.20;99.90;;;;;;5116345;27;20200;-54
2022/11/22 12:15:32;;;;;;;3.28;1.98;;;9.30;99.90;;;;;;5134472;27;20173;-51
2022/11/22 12:18:23;;;;;;;2.83;1.70;;;9.40;99.90;;;;;;5134323;27;20168;-54
2022/11/22 12:21:05;;;;;;;2.75;1.67;;;9.50;99.90;;;;;;5120594;27;20263;-54
2022/11/22 12:24:05;;;;;;;3.40;1.33;;;9.60;99.90;;;;;;5134671;27;20183;-54
2022/11/22 12:26:31;;;;;;;2.72;1.50;;;9.40;99.90;;;;;;5126868;27;20212;-54
2022/11/22 12:28:57;;;;;;;2.90;1.58;;;9.50;99.90;;;;;;5116013;27;20537;-54
2022/11/22 12:31:33;;;;;;;5.95;2.17;;;9.60;99.90;;;;;;5134357;27;20169;-54
2022/11/22 12:34:06;;;;;;;3.65;1.70;;;9.40;99.90;;;;;;5134284;27;20172;-54
2022/11/22 12:36:48;;;;;;;3.35;1.40;;;9.30;99.90;;;;;;5134342;27;20300;-54
2022/11/22 12:39:18;;;;;;;3.47;1.75;;;9.30;99.90;;;;;;5134413;27;20225;-53
2022/11/22 12:41:47;;;;;;;3.08;1.70;;;9.50;99.90;;;;;;5133885;28;20180;-54
2022/11/22 12:44:17;;;;;;;4.40;1.40;;;9.60;99.90;;;;;;5134272;28;20173;-53
2022/11/22 12:46:57;;;;;;;1.95;1.23;;;9.80;99.90;;;;;;5134036;28;20266;-54
2022/11/22 12:49:44;;;;;;;2.45;1.05;;;10.00;99.90;;;;;;5134067;28;20172;-54
2022/11/22 12:52:24;;;;;;;4.80;2.33;;;10.10;99.90;;;;;;5134155;27;20228;-53
2022/11/22 12:55:12;;;;;;;2.22;1.40;;;10.20;99.90;;;;;;5138045;27;20310;-53
2022/11/22 12:57:44;;;;;;;1.77;1.10;;;10.20;99.90;;;;;;5138221;27;20165;-54
2022/11/22 13:00:15;;;;;;;2.17;1.08;;;10.10;99.90;;;;;;5119920;27;20179;-54
2022/11/22 13:03:25;;;;;;;2.33;1.30;;;10.10;99.90;;;;;;5138202;27;20168;-53
2022/11/22 13:05:56;;;;;;;1.85;1.00;;;10.00;99.90;;;;;;5072974;27;20211;-54
2022/11/22 13:08:32;;;;;;;1.48;1.00;;;10.00;99.90;;;;;;5138278;27;20169;-54
2022/11/22 13:11:24;;;;;;;2.30;1.20;;;9.90;99.90;;;;;;5138101;27;20172;-54
2022/11/22 13:13:59;;;;;;;1.25;1.10;;;9.80;99.90;;;;;;5137969;27;20187;-54
2022/11/22 13:16:24;;;;;;;1.13;1.02;;;9.70;99.90;;;;;;5137771;27;20255;-54
2022/11/22 13:18:54;;;;;;;1.60;1.10;;;9.70;99.90;;;;;;5119713;27;20251;-54
2022/11/22 13:21:33;;;;;;;1.20;1.10;;;9.80;99.90;;;;;;5119403;27;20225;-54